Time;durP1;ratioP1;P1;durP2;ratioP2;P2;SDS_P1;SDS_P2;PMS_P1;PMS_P2;Temp;Humidity;BMP_temperature;BMP_pressure;BME280_temperature;BME280_humidity;BME280_pressure;Samples;Min_cycle;Max_cycle;Signal;HPM_P1;HPM_P2
2023/12/19 00:00:06;;;;;;;17.13;9.95;;;9.30;99.90;;;;;;4962506;28;20054;-75
2023/12/19 00:02:31;;;;;;;17.50;7.65;;;9.30;99.90;;;;;;4962218;28;20433;-75
2023/12/19 00:04:57;;;;;;;17.60;8.40;;;9.30;99.90;;;;;;4961424;28;20125;-75
2023/12/19 00:07:22;;;;;;;21.70;9.13;;;9.30;99.90;;;;;;4962431;28;20078;-75
2023/12/19 00:09:49;;;;;;;20.20;8.30;;;9.30;99.90;;;;;;4945838;28;20114;-75
2023/12/19 00:12:15;;;;;;;24.85;8.63;;;9.30;99.90;;;;;;4944482;28;20043;-75
2023/12/19 00:14:40;;;;;;;14.10;7.32;;;9.30;99.90;;;;;;4953669;28;20061;-74
2023/12/19 00:17:06;;;;;;;15.45;7.13;;;9.20;99.90;;;;;;4960293;28;20053;-74
2023/12/19 00:19:31;;;;;;;19.15;8.15;;;9.30;99.90;;;;;;4960372;28;20050;-74
2023/12/19 00:21:57;;;;;;;17.23;8.25;;;9.30;99.90;;;;;;4961073;28;20452;-74
2023/12/19 00:24:23;;;;;;;15.27;7.68;;;9.20;99.90;;;;;;4961662;28;20746;-74
2023/12/19 00:26:48;;;;;;;20.27;8.38;;;9.30;99.90;;;;;;4977417;28;20067;-74
2023/12/19 00:29:14;;;;;;;17.27;7.22;;;9.30;99.90;;;;;;4944758;28;20438;-74
2023/12/19 00:31:39;;;;;;;17.90;7.88;;;9.20;99.90;;;;;;4961663;28;20174;-74
2023/12/19 00:34:05;;;;;;;13.43;7.03;;;9.20;99.90;;;;;;4961484;28;20054;-74
2023/12/19 00:36:30;;;;;;;12.45;6.30;;;9.20;99.90;;;;;;4961484;28;20046;-74
2023/12/19 00:38:56;;;;;;;11.32;6.63;;;9.20;99.90;;;;;;4944393;28;20053;-74
2023/12/19 00:41:22;;;;;;;11.93;7.07;;;9.20;99.90;;;;;;4944823;28;20485;-74
2023/12/19 00:43:47;;;;;;;13.57;8.70;;;9.20;99.90;;;;;;4962037;28;20047;-74
2023/12/19 00:46:13;;;;;;;14.43;6.47;;;9.30;99.90;;;;;;4961787;28;20043;-74
2023/12/19 00:48:39;;;;;;;16.80;7.75;;;9.20;99.90;;;;;;4975979;28;20043;-74
2023/12/19 00:51:09;;;;;;;16.65;7.47;;;9.20;99.90;;;;;;4962325;28;20038;-74
2023/12/19 00:53:35;;;;;;;15.27;7.65;;;9.30;99.90;;;;;;4944016;28;20082;-74
2023/12/19 00:56:01;;;;;;;11.95;7.40;;;9.30;99.90;;;;;;4946954;28;20047;-74
2023/12/19 00:58:26;;;;;;;10.80;6.22;;;9.30;99.90;;;;;;4965382;28;20057;-74
2023/12/19 01:00:52;;;;;;;16.10;6.25;;;9.30;99.90;;;;;;4948218;28;20031;-74
2023/12/19 01:03:17;;;;;;;11.98;7.82;;;9.30;99.90;;;;;;4964429;28;20046;-74
2023/12/19 01:05:43;;;;;;;12.52;6.45;;;9.30;99.90;;;;;;4947988;28;20109;-74
2023/12/19 01:08:09;;;;;;;11.95;6.85;;;9.30;99.90;;;;;;4947593;28;20134;-74
2023/12/19 01:10:34;;;;;;;15.32;6.95;;;9.30;99.90;;;;;;4979737;28;20541;-74
2023/12/19 01:13:00;;;;;;;12.07;6.65;;;9.30;99.90;;;;;;4965082;28;20047;-74
2023/12/19 01:15:26;;;;;;;14.30;5.93;;;9.30;99.90;;;;;;4965050;28;20050;-75
2023/12/19 01:17:51;;;;;;;15.45;6.93;;;9.30;99.90;;;;;;4947494;28;20125;-74
2023/12/19 01:20:17;;;;;;;9.95;6.00;;;9.30;99.90;;;;;;4964267;28;20093;-75
2023/12/19 01:22:43;;;;;;;11.45;6.95;;;9.30;99.90;;;;;;4964643;28;20089;-74
2023/12/19 01:25:09;;;;;;;11.48;7.38;;;9.20;99.90;;;;;;4964654;28;20085;-74
2023/12/19 01:27:34;;;;;;;16.13;8.00;;;9.20;99.90;;;;;;4965245;28;20043;-74
2023/12/19 01:30:00;;;;;;;15.60;6.72;;;9.20;99.90;;;;;;4964656;28;20046;-74
2023/12/19 01:32:25;;;;;;;14.85;6.88;;;9.10;99.90;;;;;;4964820;28;20041;-74
2023/12/19 01:34:52;;;;;;;10.52;5.25;;;9.10;99.90;;;;;;4946256;28;20409;-74
2023/12/19 01:37:18;;;;;;;11.00;5.53;;;9.10;99.90;;;;;;4964639;28;20053;-74
2023/12/19 01:39:44;;;;;;;13.68;5.68;;;9.10;99.90;;;;;;4979771;28;20157;-74
2023/12/19 01:42:09;;;;;;;11.48;6.65;;;9.00;99.90;;;;;;4946955;28;20055;-75
2023/12/19 01:44:35;;;;;;;13.60;5.65;;;9.00;99.90;;;;;;4947134;28;20490;-74
2023/12/19 01:47:01;;;;;;;9.90;5.47;;;9.00;99.90;;;;;;4962897;28;20097;-75
2023/12/19 01:49:27;;;;;;;9.43;6.38;;;9.00;99.90;;;;;;4978937;28;20675;-75
2023/12/19 01:51:52;;;;;;;10.27;4.97;;;8.90;99.90;;;;;;4978928;28;20490;-75
2023/12/19 01:54:19;;;;;;;11.55;5.65;;;9.00;99.90;;;;;;4947028;28;20049;-74
2023/12/19 01:56:45;;;;;;;10.85;5.93;;;8.90;99.90;;;;;;4980068;28;20438;-75
2023/12/19 01:59:12;;;;;;;9.30;5.45;;;8.90;99.90;;;;;;4947021;28;20105;-74
2023/12/19 02:01:38;;;;;;;12.77;7.40;;;8.90;99.90;;;;;;4964144;28;20078;-75
2023/12/19 02:04:04;;;;;;;11.90;6.57;;;8.90;99.90;;;;;;4962571;28;20039;-74
2023/12/19 02:06:33;;;;;;;8.23;5.15;;;8.90;99.90;;;;;;4945634;28;20042;-75
2023/12/19 02:08:59;;;;;;;14.10;6.00;;;8.90;99.90;;;;;;4979305;28;20046;-75
2023/12/19 02:11:24;;;;;;;10.88;6.70;;;8.80;99.90;;;;;;4946057;28;20047;-75
2023/12/19 02:13:50;;;;;;;8.73;6.47;;;8.80;99.90;;;;;;4946595;28;20090;-75
2023/12/19 02:16:16;;;;;;;10.40;5.45;;;8.80;99.90;;;;;;4963931;28;20061;-75
2023/12/19 02:18:43;;;;;;;7.80;4.82;;;8.80;99.90;;;;;;4963350;28;20043;-75
2023/12/19 02:21:08;;;;;;;9.02;5.72;;;8.80;99.90;;;;;;4963246;28;20121;-75
2023/12/19 02:23:34;;;;;;;10.60;5.57;;;8.80;99.90;;;;;;4946034;28;20129;-75
2023/12/19 02:25:59;;;;;;;9.55;5.88;;;8.80;99.90;;;;;;4946599;28;20042;-75
2023/12/19 02:28:25;;;;;;;7.90;4.90;;;8.80;99.90;;;;;;4963334;28;20039;-75
2023/12/19 02:30:51;;;;;;;10.70;5.75;;;8.80;99.90;;;;;;4946768;28;20051;-76
2023/12/19 02:33:17;;;;;;;8.05;4.80;;;8.80;99.90;;;;;;4961718;28;20509;-75
2023/12/19 02:35:43;;;;;;;8.82;5.00;;;8.80;99.90;;;;;;4963522;28;20121;-75
2023/12/19 02:38:08;;;;;;;14.18;6.10;;;8.80;99.90;;;;;;4945846;28;20608;-75
2023/12/19 02:40:34;;;;;;;7.60;4.57;;;8.80;99.90;;;;;;4978217;28;20043;-76
2023/12/19 02:43:01;;;;;;;9.82;5.55;;;8.80;99.90;;;;;;4946272;28;20054;-75
2023/12/19 02:45:30;;;;;;;8.23;4.43;;;8.80;99.90;;;;;;4962806;28;20050;-75
2023/12/19 02:47:55;;;;;;;6.97;3.95;;;8.80;99.90;;;;;;4962468;28;20051;-75
2023/12/19 02:50:21;;;;;;;9.05;5.78;;;8.80;99.90;;;;;;4963632;28;20049;-75
2023/12/19 02:52:47;;;;;;;7.47;4.72;;;8.80;99.90;;;;;;4963796;28;20043;-75
2023/12/19 02:55:12;;;;;;;10.43;4.60;;;8.80;99.90;;;;;;4962698;28;20129;-76
2023/12/19 02:57:38;;;;;;;8.70;5.25;;;8.80;99.90;;;;;;4963109;28;20043;-75
2023/12/19 03:00:05;;;;;;;6.90;4.60;;;8.80;99.90;;;;;;4946477;28;20635;-75
2023/12/19 03:02:31;;;;;;;8.98;5.00;;;8.70;99.90;;;;;;4962175;28;20074;-75
2023/12/19 03:04:57;;;;;;;14.02;6.28;;;8.70;99.90;;;;;;4945166;28;20113;-75
2023/12/19 03:07:22;;;;;;;8.93;4.57;;;8.70;99.90;;;;;;4963323;28;20543;-75
2023/12/19 03:09:48;;;;;;;11.00;4.68;;;8.70;99.90;;;;;;4946260;28;20057;-75
2023/12/19 03:12:13;;;;;;;9.98;5.75;;;8.70;99.90;;;;;;4962162;28;20046;-75
2023/12/19 03:14:39;;;;;;;9.07;5.20;;;8.70;99.90;;;;;;4962683;28;20113;-75
2023/12/19 03:17:05;;;;;;;9.77;5.63;;;8.70;99.90;;;;;;4962799;28;20034;-75
2023/12/19 03:19:31;;;;;;;12.40;6.43;;;8.70;99.90;;;;;;4961881;28;20049;-75
2023/12/19 03:21:57;;;;;;;10.18;5.50;;;8.60;99.90;;;;;;4978049;28;20047;-75
2023/12/19 03:24:23;;;;;;;9.27;5.60;;;8.70;99.90;;;;;;4963124;28;20050;-75
2023/12/19 03:26:49;;;;;;;11.23;5.25;;;8.70;99.90;;;;;;4963421;28;20035;-75
2023/12/19 03:29:14;;;;;;;8.70;5.28;;;8.60;99.90;;;;;;4962959;28;20097;-75
2023/12/19 03:31:40;;;;;;;10.70;6.20;;;8.60;99.90;;;;;;4961165;28;20545;-75
2023/12/19 03:34:06;;;;;;;10.32;6.40;;;8.70;99.90;;;;;;4962036;28;20450;-75
2023/12/19 03:36:32;;;;;;;13.73;5.93;;;8.60;99.90;;;;;;4962870;28;20046;-75
2023/12/19 03:38:57;;;;;;;7.90;5.28;;;8.60;99.90;;;;;;4945377;28;20533;-75
2023/12/19 03:41:23;;;;;;;8.55;5.18;;;8.60;99.90;;;;;;4962537;28;20046;-75
2023/12/19 03:43:48;;;;;;;6.38;4.72;;;8.60;99.90;;;;;;4977377;28;20108;-75
2023/12/19 03:46:14;;;;;;;12.10;5.93;;;8.60;99.90;;;;;;4962179;28;20458;-75
2023/12/19 03:48:44;;;;;;;10.13;5.78;;;8.60;99.90;;;;;;4961620;28;20101;-75
2023/12/19 03:51:10;;;;;;;7.13;4.28;;;8.60;99.90;;;;;;4993230;28;20042;-75
2023/12/19 03:53:36;;;;;;;6.88;5.10;;;8.60;99.90;;;;;;4944843;28;20171;-75
2023/12/19 03:56:01;;;;;;;6.75;4.07;;;8.60;99.90;;;;;;4945134;28;20495;-75
2023/12/19 03:58:27;;;;;;;7.57;4.57;;;8.60;99.90;;;;;;4945263;28;20046;-75
2023/12/19 04:00:52;;;;;;;8.13;4.65;;;8.50;99.90;;;;;;4962272;28;20039;-75
2023/12/19 04:03:18;;;;;;;9.18;4.88;;;8.50;99.90;;;;;;4961216;28;20129;-75
2023/12/19 04:05:44;;;;;;;9.00;5.25;;;8.50;99.90;;;;;;4945574;28;20097;-75
2023/12/19 04:08:10;;;;;;;9.65;4.97;;;8.50;99.90;;;;;;4944811;28;20105;-75
2023/12/19 04:10:35;;;;;;;7.22;5.13;;;8.60;99.90;;;;;;4962504;28;20586;-75
2023/12/19 04:13:01;;;;;;;10.98;4.90;;;8.50;99.90;;;;;;4976554;28;20074;-75
2023/12/19 04:15:27;;;;;;;5.97;3.53;;;8.50;99.90;;;;;;4961856;28;20042;-75
2023/12/19 04:17:52;;;;;;;5.85;3.35;;;8.50;99.90;;;;;;4961745;28;20039;-76
2023/12/19 04:20:18;;;;;;;5.90;5.07;;;8.50;99.90;;;;;;4944824;28;20035;-75
2023/12/19 04:22:44;;;;;;;5.47;4.32;;;8.50;99.90;;;;;;4945225;28;20050;-75
2023/12/19 04:25:09;;;;;;;8.00;4.60;;;8.50;99.90;;;;;;4944715;28;20051;-75
2023/12/19 04:27:36;;;;;;;9.00;4.72;;;8.50;99.90;;;;;;4944879;28;20051;-75
2023/12/19 04:30:02;;;;;;;9.02;4.05;;;8.50;99.90;;;;;;4962283;28;20123;-75
2023/12/19 04:32:28;;;;;;;5.78;4.00;;;8.50;99.90;;;;;;4965565;28;20079;-75
2023/12/19 04:34:53;;;;;;;7.90;3.95;;;8.50;99.90;;;;;;4965320;28;20155;-75
2023/12/19 04:37:19;;;;;;;7.75;3.45;;;8.50;99.90;;;;;;4948557;28;20062;-75
2023/12/19 04:39:44;;;;;;;6.95;3.63;;;8.50;99.90;;;;;;4948513;28;20049;-75
2023/12/19 04:42:17;;;;;;;8.10;3.78;;;8.50;99.90;;;;;;4980630;28;20568;-75
2023/12/19 04:44:43;;;;;;;;;;;8.50;99.90;;;;;;4948898;28;20501;-75
2023/12/19 04:47:08;;;;;;;5.85;3.67;;;8.50;99.90;;;;;;4948052;28;20000;-75
2023/12/19 04:49:34;;;;;;;5.63;2.90;;;8.50;99.90;;;;;;4947253;28;20038;-75
2023/12/19 04:52:00;;;;;;;6.13;3.72;;;8.50;99.90;;;;;;4948599;28;20489;-74
2023/12/19 04:54:25;;;;;;;7.18;3.25;;;8.50;99.90;;;;;;4965106;28;20497;-75
2023/12/19 04:56:51;;;;;;;5.07;2.72;;;8.50;99.90;;;;;;4965759;28;20050;-75
2023/12/19 04:59:16;;;;;;;7.53;4.07;;;8.50;99.90;;;;;;4948074;28;20154;-75
2023/12/19 05:01:42;;;;;;;6.28;3.28;;;8.50;99.90;;;;;;4980726;28;20039;-75
2023/12/19 05:04:09;;;;;;;7.63;4.50;;;8.50;99.90;;;;;;4964106;28;20035;-75
2023/12/19 05:06:34;;;;;;;4.95;2.35;;;8.50;99.90;;;;;;4947816;28;20094;-75
2023/12/19 05:09:00;;;;;;;4.30;2.80;;;8.50;99.90;;;;;;4980708;28;20490;-75
2023/12/19 05:11:26;;;;;;;3.63;2.70;;;8.50;99.90;;;;;;4979375;28;20077;-75
2023/12/19 05:13:51;;;;;;;3.95;2.75;;;8.50;99.90;;;;;;4964884;28;20082;-76
2023/12/19 05:16:18;;;;;;;5.55;3.33;;;8.50;99.90;;;;;;4965819;28;20050;-75
2023/12/19 05:18:45;;;;;;;3.13;2.25;;;8.50;99.90;;;;;;4946222;28;20133;-75
2023/12/19 05:21:12;;;;;;;5.05;3.35;;;8.50;99.90;;;;;;4964630;28;20039;-75
2023/12/19 05:23:39;;;;;;;7.13;2.90;;;8.50;99.90;;;;;;4979480;28;20043;-75
2023/12/19 05:26:05;;;;;;;5.72;3.60;;;8.50;99.90;;;;;;4964732;28;20043;-75
2023/12/19 05:28:33;;;;;;;5.97;2.72;;;8.50;99.90;;;;;;4964393;28;20049;-75
2023/12/19 05:30:59;;;;;;;4.65;2.13;;;8.50;99.90;;;;;;4979683;28;20065;-75
2023/12/19 05:33:29;;;;;;;4.68;2.85;;;8.50;99.90;;;;;;4946679;28;20417;-75
2023/12/19 05:35:55;;;;;;;6.63;3.42;;;8.50;99.90;;;;;;4964187;28;20070;-75
2023/12/19 05:38:21;;;;;;;4.68;2.40;;;8.50;99.90;;;;;;4947600;28;20089;-76
2023/12/19 05:40:47;;;;;;;5.43;3.05;;;8.50;99.90;;;;;;4980091;28;20134;-75
2023/12/19 05:43:14;;;;;;;5.13;3.08;;;8.50;99.90;;;;;;4963253;28;20062;-75
2023/12/19 05:45:40;;;;;;;6.22;3.85;;;8.50;99.90;;;;;;4964634;28;20138;-75
2023/12/19 05:48:07;;;;;;;5.93;3.33;;;8.50;99.90;;;;;;4978417;28;20047;-75
2023/12/19 05:50:32;;;;;;;5.53;3.22;;;8.60;99.90;;;;;;4947704;28;20053;-75
2023/12/19 05:52:58;;;;;;;7.40;4.00;;;8.60;99.90;;;;;;4963743;28;20437;-75
2023/12/19 05:55:23;;;;;;;6.80;3.67;;;8.60;99.90;;;;;;4970545;28;20046;-75
2023/12/19 05:57:52;;;;;;;5.68;3.53;;;8.60;99.90;;;;;;4952956;28;20544;-75
2023/12/19 06:00:18;;;;;;;6.40;3.03;;;8.60;99.90;;;;;;4992093;28;20031;-75
2023/12/19 06:02:44;;;;;;;6.53;3.55;;;8.60;99.90;;;;;;4978194;28;20105;-75
2023/12/19 06:05:10;;;;;;;5.20;3.40;;;8.60;99.90;;;;;;4945757;28;20055;-75
2023/12/19 06:07:36;;;;;;;7.00;3.28;;;8.60;99.90;;;;;;4947597;28;20438;-75
2023/12/19 06:10:10;;;;;;;7.85;3.55;;;8.70;99.90;;;;;;4963464;28;20054;-75
2023/12/19 06:12:35;;;;;;;6.57;3.95;;;8.60;99.90;;;;;;4979071;28;20117;-75
2023/12/19 06:15:02;;;;;;;6.22;3.40;;;8.70;99.90;;;;;;4978672;28;20062;-75
2023/12/19 06:17:29;;;;;;;7.15;3.53;;;8.70;99.90;;;;;;4963199;28;20057;-75
2023/12/19 06:19:54;;;;;;;7.25;3.85;;;8.70;99.90;;;;;;4963772;28;20717;-75
2023/12/19 06:22:20;;;;;;;7.20;3.28;;;8.80;99.90;;;;;;4978683;28;20066;-75
2023/12/19 06:24:46;;;;;;;7.15;3.58;;;8.80;99.90;;;;;;4963765;28;20070;-74
2023/12/19 06:27:15;;;;;;;4.95;3.08;;;8.80;99.90;;;;;;4963622;28;20035;-75
2023/12/19 06:29:42;;;;;;;9.40;3.40;;;8.80;99.90;;;;;;4963157;28;20046;-75
2023/12/19 06:32:10;;;;;;;8.27;4.13;;;8.80;99.90;;;;;;4979216;28;20056;-72
2023/12/19 06:34:36;;;;;;;5.75;3.80;;;8.90;99.90;;;;;;4940629;28;20137;-73
2023/12/19 06:37:02;;;;;;;9.50;3.95;;;8.90;99.90;;;;;;4952913;28;20130;-73
2023/12/19 06:39:27;;;;;;;6.57;3.95;;;8.90;99.90;;;;;;4957482;28;20533;-74
2023/12/19 06:41:53;;;;;;;10.95;5.05;;;8.90;99.90;;;;;;4966454;28;20046;-73
2023/12/19 06:44:19;;;;;;;8.63;4.22;;;8.90;99.90;;;;;;4963913;28;20047;-73
2023/12/19 06:46:46;;;;;;;9.60;3.53;;;8.90;99.90;;;;;;4961948;28;20038;-74
2023/12/19 06:49:16;;;;;;;6.15;3.53;;;8.90;99.90;;;;;;4977168;28;20043;-73
2023/12/19 06:51:41;;;;;;;8.38;3.33;;;8.90;99.90;;;;;;4962088;28;20038;-75
2023/12/19 06:54:07;;;;;;;6.65;4.28;;;8.90;99.90;;;;;;4962280;28;20058;-77
2023/12/19 06:56:33;;;;;;;6.47;3.47;;;9.00;99.90;;;;;;4964655;28;20282;-75
2023/12/19 06:59:00;;;;;;;8.10;3.13;;;9.00;99.90;;;;;;4949542;28;20490;-78
2023/12/19 07:01:26;;;;;;;7.00;2.70;;;8.90;99.90;;;;;;4979105;28;20057;-76
2023/12/19 07:03:52;;;;;;;7.72;3.60;;;9.00;99.90;;;;;;4959842;28;20501;-78
2023/12/19 07:06:17;;;;;;;4.38;2.15;;;9.00;99.90;;;;;;4976194;28;20046;-77
2023/12/19 07:08:43;;;;;;;4.13;2.85;;;9.00;99.90;;;;;;4976449;28;20078;-76
2023/12/19 07:11:09;;;;;;;8.05;2.97;;;9.00;99.90;;;;;;4961234;28;20050;-79
2023/12/19 07:13:35;;;;;;;6.03;3.75;;;9.00;99.90;;;;;;4944755;28;20679;-75
2023/12/19 07:16:02;;;;;;;5.22;2.80;;;9.00;99.90;;;;;;4961335;28;20042;-79
2023/12/19 07:18:28;;;;;;;4.25;2.17;;;9.00;99.90;;;;;;4960986;28;20058;-76
2023/12/19 07:20:54;;;;;;;7.97;2.63;;;9.00;99.90;;;;;;4975664;28;20130;-78
2023/12/19 07:23:19;;;;;;;6.57;3.20;;;9.00;99.90;;;;;;4961992;28;20042;-76
2023/12/19 07:25:45;;;;;;;5.50;2.95;;;9.00;99.90;;;;;;4962033;28;20047;-77
2023/12/19 07:28:11;;;;;;;6.03;2.75;;;9.00;99.90;;;;;;4960066;28;20050;-78
2023/12/19 07:30:37;;;;;;;5.28;3.20;;;9.00;99.90;;;;;;4961146;28;20413;-76
2023/12/19 07:33:02;;;;;;;8.50;3.20;;;9.00;99.90;;;;;;4960329;28;20054;-77
2023/12/19 07:35:28;;;;;;;7.10;3.08;;;9.00;99.90;;;;;;4961274;28;20050;-76
2023/12/19 07:37:54;;;;;;;7.28;2.83;;;9.00;99.90;;;;;;4959976;28;20039;-77
2023/12/19 07:40:19;;;;;;;7.95;3.20;;;9.00;99.90;;;;;;4961370;28;20106;-76
2023/12/19 07:42:45;;;;;;;6.85;3.10;;;9.10;99.90;;;;;;4960330;28;20050;-75
2023/12/19 07:45:11;;;;;;;6.28;3.17;;;9.00;99.90;;;;;;4960951;28;20093;-77
2023/12/19 07:47:37;;;;;;;7.63;3.00;;;9.00;99.90;;;;;;4959266;28;20058;-75
2023/12/19 07:50:03;;;;;;;4.43;2.70;;;9.00;99.90;;;;;;4960677;28;20046;-77
2023/12/19 07:52:29;;;;;;;9.13;3.67;;;9.00;99.90;;;;;;4961376;28;20050;-76
2023/12/19 07:54:55;;;;;;;6.63;3.10;;;9.00;99.90;;;;;;4960559;28;20048;-77
2023/12/19 07:57:20;;;;;;;12.43;3.78;;;9.00;99.90;;;;;;4992142;28;20042;-77
2023/12/19 07:59:46;;;;;;;8.70;2.80;;;9.10;99.90;;;;;;4961253;28;20046;-75
2023/12/19 08:02:12;;;;;;;7.18;4.13;;;9.00;99.90;;;;;;4959531;28;20050;-78
2023/12/19 08:04:38;;;;;;;9.88;4.82;;;9.10;99.90;;;;;;4987010;28;20252;-76
2023/12/19 08:07:04;;;;;;;6.90;3.75;;;9.10;99.90;;;;;;4964585;28;20043;-76
2023/12/19 08:09:30;;;;;;;7.80;3.13;;;9.00;99.90;;;;;;4980227;28;20038;-78
2023/12/19 08:11:56;;;;;;;7.60;3.50;;;9.10;99.90;;;;;;4980069;28;20334;-77
2023/12/19 08:14:22;;;;;;;8.65;4.20;;;9.10;99.90;;;;;;4965049;28;20058;-78
2023/12/19 08:16:48;;;;;;;8.82;3.80;;;9.10;99.90;;;;;;4980097;28;20049;-77
2023/12/19 08:19:16;;;;;;;8.60;2.83;;;9.00;99.90;;;;;;4978341;28;20042;-78
2023/12/19 08:21:52;;;;;;;5.72;2.83;;;9.10;99.90;;;;;;4979153;28;20675;-76
2023/12/19 08:24:18;;;;;;;9.00;3.53;;;9.10;99.90;;;;;;4948912;28;20051;-77
2023/12/19 08:26:50;;;;;;;8.60;3.63;;;9.10;99.90;;;;;;4965606;28;20482;-77
2023/12/19 08:29:17;;;;;;;9.18;2.92;;;9.10;99.90;;;;;;4948951;28;20055;-77
2023/12/19 08:31:45;;;;;;;6.55;3.25;;;9.10;99.90;;;;;;4948331;28;20070;-77
2023/12/19 08:34:11;;;;;;;9.40;2.88;;;9.10;99.90;;;;;;4979159;28;20062;-78
2023/12/19 08:36:36;;;;;;;8.40;3.25;;;9.10;99.90;;;;;;4964739;28;20046;-78
2023/12/19 08:39:06;;;;;;;4.97;2.42;;;9.10;99.90;;;;;;4948021;28;20054;-77
2023/12/19 08:41:32;;;;;;;8.40;2.35;;;9.10;99.90;;;;;;4946599;28;20125;-77
2023/12/19 08:43:57;;;;;;;5.38;2.60;;;9.10;99.90;;;;;;4964200;28;20188;-77
2023/12/19 08:46:24;;;;;;;6.50;2.53;;;9.10;99.90;;;;;;4945878;28;20055;-77
2023/12/19 08:48:52;;;;;;;5.10;2.42;;;9.10;99.90;;;;;;4946317;28;20526;-76
2023/12/19 08:51:18;;;;;;;7.72;2.88;;;9.20;99.90;;;;;;4946932;28;20437;-76
2023/12/19 08:53:43;;;;;;;6.10;2.65;;;9.20;99.90;;;;;;4946737;28;20035;-78
2023/12/19 08:56:09;;;;;;;6.35;2.65;;;9.20;99.90;;;;;;4963423;28;20050;-76
2023/12/19 08:58:34;;;;;;;7.05;3.28;;;9.20;99.90;;;;;;4946611;28;20102;-78
2023/12/19 09:01:00;;;;;;;5.22;2.65;;;9.20;99.90;;;;;;4946885;28;20049;-76
2023/12/19 09:03:26;;;;;;;7.47;3.88;;;9.20;99.90;;;;;;4944150;28;20294;-73
2023/12/19 09:05:51;;;;;;;4.05;2.63;;;9.20;99.90;;;;;;4977713;28;20077;-75
2023/12/19 09:08:17;;;;;;;8.75;3.03;;;9.20;99.90;;;;;;4962565;28;20042;-74
2023/12/19 09:10:42;;;;;;;6.68;3.58;;;9.20;99.90;;;;;;4978280;28;20370;-76
2023/12/19 09:13:08;;;;;;;6.93;3.40;;;9.30;99.90;;;;;;4963117;28;20086;-74
2023/12/19 09:15:35;;;;;;;4.70;2.80;;;9.20;99.90;;;;;;4962343;28;20051;-75
2023/12/19 09:18:02;;;;;;;9.50;4.18;;;9.20;99.90;;;;;;4978145;28;20050;-74
2023/12/19 09:20:29;;;;;;;10.82;3.90;;;9.30;99.90;;;;;;4963030;28;21032;-74
2023/12/19 09:22:54;;;;;;;7.88;3.78;;;9.30;99.90;;;;;;4963523;28;20616;-73
2023/12/19 09:25:20;;;;;;;8.65;3.63;;;9.30;99.90;;;;;;4962726;28;20126;-75
2023/12/19 09:27:46;;;;;;;7.88;3.00;;;9.30;99.90;;;;;;4978478;28;20046;-76
2023/12/19 09:30:12;;;;;;;8.18;2.95;;;9.30;99.90;;;;;;4962984;28;20145;-74
2023/12/19 09:32:39;;;;;;;9.35;3.55;;;9.30;99.90;;;;;;4977155;28;20510;-75
2023/12/19 09:35:06;;;;;;;8.57;3.88;;;9.30;99.90;;;;;;4962672;28;20039;-73
2023/12/19 09:37:31;;;;;;;10.27;4.20;;;9.30;99.90;;;;;;4977834;28;20123;-73
2023/12/19 09:39:57;;;;;;;10.30;4.07;;;9.40;99.90;;;;;;4977745;28;20637;-74
2023/12/19 09:42:22;;;;;;;8.40;3.25;;;9.40;99.90;;;;;;4945406;28;20423;-74
2023/12/19 09:44:48;;;;;;;7.53;3.65;;;9.40;99.90;;;;;;4978424;28;20506;-74
2023/12/19 09:47:24;;;;;;;10.27;3.88;;;9.40;99.90;;;;;;4977043;28;20047;-74
2023/12/19 09:49:57;;;;;;;11.07;3.40;;;9.40;99.90;;;;;;4977204;28;20065;-74
2023/12/19 09:52:24;;;;;;;7.55;3.22;;;9.40;99.90;;;;;;4978062;28;20043;-75
2023/12/19 09:54:51;;;;;;;5.60;2.53;;;9.50;99.90;;;;;;4945202;28;20054;-74
2023/12/19 09:57:18;;;;;;;9.27;3.83;;;9.50;99.90;;;;;;4962889;28;20456;-75
2023/12/19 09:59:46;;;;;;;9.13;4.28;;;9.50;99.90;;;;;;4977280;28;20046;-74
2023/12/19 10:02:14;;;;;;;9.13;2.85;;;9.50;99.90;;;;;;4961818;28;20073;-75
2023/12/19 10:04:40;;;;;;;10.93;3.83;;;9.50;99.90;;;;;;4961928;28;20055;-74
2023/12/19 10:07:05;;;;;;;8.73;4.10;;;9.60;99.90;;;;;;4962870;28;20058;-75
2023/12/19 10:09:31;;;;;;;10.95;3.42;;;9.60;99.90;;;;;;4944765;28;20509;-74
2023/12/19 10:12:12;;;;;;;13.05;4.38;;;9.60;99.90;;;;;;4962283;28;20059;-74
2023/12/19 10:14:38;;;;;;;9.90;4.15;;;9.60;99.90;;;;;;4938801;29;20102;-74
2023/12/19 10:17:11;;;;;;;9.68;3.03;;;9.70;99.90;;;;;;4921558;29;20086;-74
2023/12/19 10:19:38;;;;;;;9.63;2.85;;;9.70;99.90;;;;;;4955084;28;20111;-74
2023/12/19 10:22:05;;;;;;;8.57;3.40;;;9.70;99.90;;;;;;4923144;29;20043;-73
2023/12/19 10:24:31;;;;;;;6.63;2.58;;;9.70;99.90;;;;;;4922927;29;20780;-75
2023/12/19 10:27:02;;;;;;;9.55;3.63;;;9.70;99.90;;;;;;4953852;28;20048;-74
2023/12/19 10:29:34;;;;;;;9.25;2.80;;;9.70;99.90;;;;;;4922450;29;20589;-74
2023/12/19 10:32:10;;;;;;;;;;;9.70;99.90;;;;;;4921498;29;20055;-75
2023/12/19 10:34:36;;;;;;;4.60;2.20;;;9.80;99.90;;;;;;4923859;29;19929;-75
2023/12/19 10:37:18;;;;;;;5.65;2.45;;;9.80;99.90;;;;;;4922726;29;20043;-74
2023/12/19 10:39:44;;;;;;;8.32;3.70;;;9.80;99.90;;;;;;4921684;29;20054;-74
2023/12/19 10:42:10;;;;;;;5.80;2.40;;;9.80;99.90;;;;;;4954365;28;20062;-76
2023/12/19 10:44:40;;;;;;;7.45;2.60;;;9.80;99.90;;;;;;4954287;28;20086;-77
2023/12/19 10:47:10;;;;;;;7.97;2.40;;;9.90;99.90;;;;;;4936074;29;20730;-78
2023/12/19 10:49:37;;;;;;;4.95;2.88;;;9.90;99.90;;;;;;4923668;29;20526;-76
2023/12/19 10:52:09;;;;;;;11.15;4.18;;;9.90;99.90;;;;;;4922029;29;20048;-75
2023/12/19 10:54:36;;;;;;;7.13;2.83;;;9.90;99.90;;;;;;4954644;28;20467;-76
2023/12/19 10:57:14;;;;;;;8.63;3.00;;;9.90;99.90;;;;;;4923686;29;20036;-75
2023/12/19 10:59:54;;;;;;;5.68;2.90;;;9.90;99.90;;;;;;4954572;28;20059;-76
2023/12/19 11:02:35;;;;;;;8.45;2.78;;;9.90;99.90;;;;;;4953331;28;20047;-75
2023/12/19 11:05:19;;;;;;;5.82;2.17;;;9.90;99.90;;;;;;4921975;29;20082;-75
2023/12/19 11:07:48;;;;;;;5.32;2.40;;;9.90;99.90;;;;;;4954225;28;20047;-76
2023/12/19 11:10:17;;;;;;;6.25;2.40;;;9.90;99.90;;;;;;4922050;29;20048;-75
2023/12/19 11:12:45;;;;;;;5.28;2.65;;;9.90;99.90;;;;;;4927308;28;20319;-75
2023/12/19 11:15:12;;;;;;;7.00;2.25;;;10.00;99.90;;;;;;4973629;28;20050;-76
2023/12/19 11:17:58;;;;;;;4.57;2.25;;;9.90;99.90;;;;;;4971498;28;20043;-75
2023/12/19 11:20:36;;;;;;;8.00;2.30;;;10.00;99.90;;;;;;4941999;28;20149;-75
2023/12/19 11:23:10;;;;;;;5.75;2.30;;;10.00;99.90;;;;;;4941795;28;20055;-78
2023/12/19 11:25:41;;;;;;;4.60;2.30;;;10.00;99.90;;;;;;4972833;28;20450;-77
2023/12/19 11:28:09;;;;;;;5.43;1.95;;;10.00;99.90;;;;;;4962903;28;20051;-76
2023/12/19 11:30:39;;;;;;;2.92;2.10;;;10.00;99.90;;;;;;4957245;28;20047;-77
2023/12/19 11:33:05;;;;;;;1.92;1.60;;;10.00;99.90;;;;;;4923300;29;20047;-78
2023/12/19 11:35:31;;;;;;;7.30;1.88;;;10.00;99.90;;;;;;4940642;29;20035;-78
2023/12/19 11:38:29;;;;;;;1.75;1.50;;;10.00;99.90;;;;;;4940355;29;20217;-77
2023/12/19 11:40:57;;;;;;;4.05;1.45;;;9.90;99.90;;;;;;4972870;28;20058;-77
2023/12/19 11:43:31;;;;;;;3.55;1.58;;;9.90;99.90;;;;;;4972586;28;20043;-77
2023/12/19 11:46:03;;;;;;;3.53;1.35;;;9.90;99.90;;;;;;4972736;28;20051;-77
2023/12/19 11:48:40;;;;;;;2.07;1.40;;;9.90;99.90;;;;;;4972378;28;20047;-77
2023/12/19 11:51:09;;;;;;;2.65;1.17;;;9.90;99.90;;;;;;4940871;29;20342;-76
2023/12/19 11:53:36;;;;;;;1.17;0.98;;;9.90;99.90;;;;;;4956758;28;20035;-77
2023/12/19 11:56:20;;;;;;;3.67;1.20;;;9.90;99.90;;;;;;4973016;28;20051;-76
2023/12/19 11:58:48;;;;;;;1.58;0.70;;;9.80;99.90;;;;;;4941562;29;20090;-77
2023/12/19 12:01:14;;;;;;;1.40;0.90;;;9.80;99.90;;;;;;4973048;28;20062;-77
2023/12/19 12:03:39;;;;;;;3.20;0.90;;;9.80;99.90;;;;;;4941176;28;20087;-77
2023/12/19 12:06:07;;;;;;;1.15;0.93;;;9.80;99.90;;;;;;4941912;29;20091;-77
2023/12/19 12:08:32;;;;;;;0.60;0.60;;;9.80;99.90;;;;;;4978205;28;20047;-77
2023/12/19 12:11:07;;;;;;;0.82;0.43;;;9.80;99.90;;;;;;4973447;28;20074;-77
2023/12/19 12:13:34;;;;;;;1.48;0.68;;;9.70;99.90;;;;;;4953684;28;20054;-77
2023/12/19 12:16:01;;;;;;;1.00;0.88;;;9.70;99.90;;;;;;4977076;28;20062;-78
2023/12/19 12:18:30;;;;;;;0.50;0.38;;;9.70;99.90;;;;;;4946979;28;20497;-77
2023/12/19 12:21:08;;;;;;;1.55;0.85;;;9.70;99.90;;;;;;4948436;28;20051;-77
2023/12/19 12:23:34;;;;;;;1.65;1.13;;;9.70;99.90;;;;;;4955194;28;20046;-76
2023/12/19 12:26:00;;;;;;;1.02;0.55;;;9.70;99.90;;;;;;4952954;28;20067;-78
2023/12/19 12:28:26;;;;;;;1.40;0.70;;;9.70;99.90;;;;;;4989269;28;20414;-76
2023/12/19 12:30:59;;;;;;;1.00;0.73;;;9.70;99.90;;;;;;4960392;28;20046;-78
2023/12/19 12:33:25;;;;;;;2.50;0.73;;;9.70;99.90;;;;;;4974961;28;20113;-77
2023/12/19 12:35:52;;;;;;;0.95;0.65;;;9.60;99.90;;;;;;4975314;28;20051;-77
2023/12/19 12:38:19;;;;;;;1.02;0.45;;;9.60;99.90;;;;;;4975824;28;20394;-78
2023/12/19 12:40:59;;;;;;;2.58;0.52;;;9.60;99.90;;;;;;4975592;28;20043;-77
2023/12/19 12:43:39;;;;;;;0.65;0.45;;;9.70;99.90;;;;;;4975761;28;20101;-77
2023/12/19 12:46:16;;;;;;;1.75;0.43;;;9.60;99.90;;;;;;4927207;28;20307;-76
2023/12/19 12:48:44;;;;;;;2.42;0.45;;;9.70;99.90;;;;;;4975439;28;20336;-77
2023/12/19 12:51:10;;;;;;;0.55;0.30;;;9.60;99.90;;;;;;4975962;28;20086;-77
2023/12/19 12:53:37;;;;;;;6.93;3.25;;;9.60;99.90;;;;;;4947130;28;20142;-77